createdAt,value
2022-08-27T00:00:16.144Z,61.60
2022-08-27T00:01:18.767Z,61.70
2022-08-27T00:02:22.607Z,61.60
2022-08-27T00:03:25.094Z,61.70
2022-08-27T00:04:29.049Z,61.80
2022-08-27T00:05:31.606Z,61.70
2022-08-27T00:06:36.555Z,61.60
2022-08-27T00:07:42.070Z,61.50
2022-08-27T00:08:45.917Z,61.70
2022-08-27T00:09:49.321Z,61.90
2022-08-27T00:10:51.991Z,61.80
2022-08-27T00:11:56.053Z,62.10
2022-08-27T00:13:00.300Z,62.50
2022-08-27T00:14:04.605Z,62.10
2022-08-27T00:15:08.735Z,61.90
2022-08-27T00:16:17.935Z,62.00
2022-08-27T00:17:20.671Z,62.10
2022-08-27T00:18:23.961Z,62.30
2022-08-27T00:19:26.274Z,62.30
2022-08-27T00:20:29.969Z,62.30
2022-08-27T00:21:33.266Z,62.50
2022-08-27T00:22:36.836Z,61.60
2022-08-27T00:23:39.482Z,62.60
2022-08-27T00:24:48.485Z,62.80
2022-08-27T00:25:51.565Z,62.80
2022-08-27T00:26:55.003Z,63.00
2022-08-27T00:27:57.568Z,63.10
2022-08-27T00:29:02.733Z,63.30
2022-08-27T00:30:07.140Z,63.10
2022-08-27T00:31:12.497Z,62.90
2022-08-27T00:32:15.197Z,63.10
2022-08-27T00:33:18.579Z,62.80
2022-08-27T00:34:23.919Z,62.70
2022-08-27T00:35:27.974Z,62.70
2022-08-27T00:36:30.651Z,62.90
2022-08-27T00:37:34.694Z,63.40
2022-08-27T00:38:38.943Z,62.90
2022-08-27T00:39:42.274Z,63.00
2022-08-27T00:40:45.017Z,63.10
2022-08-27T00:41:48.519Z,63.10
2022-08-27T00:42:50.980Z,63.50
2022-08-27T00:43:58.204Z,62.40
2022-08-27T00:45:02.938Z,63.70
2022-08-27T00:46:19.065Z,63.80
2022-08-27T00:47:27.775Z,63.90
2022-08-27T00:48:35.551Z,64.10
2022-08-27T00:49:44.625Z,63.70
2022-08-27T00:50:52.087Z,63.80
2022-08-27T00:52:01.471Z,63.70
2022-08-27T00:53:08.429Z,65.10
2022-08-27T00:54:12.865Z,64.10
2022-08-27T00:55:28.721Z,64.10
2022-08-27T00:56:39.144Z,63.70
2022-08-27T00:57:44.301Z,63.90
2022-08-27T00:58:50.625Z,63.80
2022-08-27T00:59:53.300Z,64.10
2022-08-27T01:00:59.958Z,64.20
2022-08-27T01:02:23.910Z,63.90
2022-08-27T01:03:28.163Z,64.10
2022-08-27T01:04:33.223Z,63.90
2022-08-27T01:05:38.679Z,63.80
2022-08-27T01:06:41.179Z,63.90
2022-08-27T01:07:51.355Z,64.00
2022-08-27T01:08:59.231Z,63.80
2022-08-27T01:10:06.231Z,63.90
2022-08-27T01:11:09.041Z,63.70
2022-08-27T01:12:20.215Z,64.10
2022-08-27T01:13:58.901Z,63.70
2022-08-27T01:14:49.681Z,63.80
2022-08-27T01:15:53.321Z,64.10
2022-08-27T01:17:01.163Z,63.80
2022-08-27T01:18:08.107Z,63.60
2022-08-27T01:19:21.115Z,64.70
2022-08-27T01:20:29.841Z,64.00
2022-08-27T01:21:38.259Z,63.90
2022-08-27T01:22:51.661Z,64.10
2022-08-27T01:24:03.083Z,64.50
2022-08-27T01:25:12.805Z,64.50
2022-08-27T01:26:17.583Z,64.20
2022-08-27T01:27:25.103Z,64.60
2022-08-27T01:28:37.466Z,64.30
2022-08-27T01:29:43.613Z,64.20
2022-08-27T01:30:46.175Z,64.50
2022-08-27T01:31:49.593Z,64.10
2022-08-27T01:32:52.855Z,64.20
2022-08-27T01:33:59.187Z,64.20
2022-08-27T01:35:04.743Z,64.20
2022-08-27T01:36:09.010Z,64.20
2022-08-27T01:37:12.896Z,64.10
2022-08-27T01:38:21.633Z,64.30
2022-08-27T01:39:34.128Z,64.30
2022-08-27T01:40:40.828Z,64.00
2022-08-27T01:41:44.229Z,64.50
2022-08-27T01:42:51.393Z,64.60
2022-08-27T01:43:54.463Z,64.40
2022-08-27T01:45:00.223Z,64.60
2022-08-27T01:46:02.535Z,64.80
2022-08-27T01:47:06.109Z,64.90
2022-08-27T01:48:08.511Z,65.10
2022-08-27T01:49:12.177Z,65.00
2022-08-27T01:50:20.166Z,65.00
2022-08-27T01:51:24.019Z,64.90
2022-08-27T01:52:29.561Z,65.00
2022-08-27T01:53:32.840Z,64.70
2022-08-27T01:54:35.547Z,64.80
2022-08-27T01:55:47.549Z,64.00
2022-08-27T01:56:50.985Z,65.10
2022-08-27T01:57:55.146Z,65.70
2022-08-27T01:58:57.509Z,65.30
2022-08-27T02:00:01.147Z,65.40
2022-08-27T02:01:17.777Z,65.90
2022-08-27T02:02:21.422Z,65.50
2022-08-27T02:03:28.140Z,65.80
2022-08-27T02:04:31.591Z,65.80
2022-08-27T02:05:45.063Z,65.90
2022-08-27T02:06:47.620Z,65.90
2022-08-27T02:07:51.724Z,65.70
2022-08-27T02:08:54.182Z,65.60
2022-08-27T02:09:59.671Z,65.90
2022-08-27T02:11:03.987Z,65.90
2022-08-27T02:12:10.494Z,66.10
2022-08-27T02:13:13.884Z,65.70
2022-08-27T02:14:20.392Z,65.90
2022-08-27T02:15:24.288Z,67.50
2022-08-27T02:16:27.762Z,66.70
2022-08-27T02:17:30.555Z,66.30
2022-08-27T02:18:37.311Z,65.90
2022-08-27T02:19:39.789Z,65.80
2022-08-27T02:20:46.151Z,66.00
2022-08-27T02:21:49.936Z,66.60
2022-08-27T02:22:53.453Z,66.90
2022-08-27T02:23:56.232Z,66.40
2022-08-27T02:24:59.499Z,66.80
2022-08-27T02:26:03.144Z,67.00
2022-08-27T02:27:06.942Z,66.60
2022-08-27T02:28:09.996Z,66.90
2022-08-27T02:29:13.729Z,66.90
2022-08-27T02:30:20.686Z,67.50
2022-08-27T02:31:24.066Z,67.10
2022-08-27T02:32:32.458Z,67.10
2022-08-27T02:33:36.105Z,67.10
2022-08-27T02:34:38.384Z,67.50
2022-08-27T02:35:44.388Z,67.20
2022-08-27T02:36:47.067Z,67.10
2022-08-27T02:37:51.027Z,67.20
2022-08-27T02:38:53.533Z,67.70
2022-08-27T02:39:56.991Z,67.60
2022-08-27T02:40:59.318Z,67.20
2022-08-27T02:42:04.789Z,67.90
2022-08-27T02:43:07.862Z,67.30
2022-08-27T02:44:11.383Z,67.70
2022-08-27T02:45:17.627Z,67.50
2022-08-27T02:46:22.783Z,67.50
2022-08-27T02:47:25.718Z,67.20
2022-08-27T02:48:29.367Z,67.30
2022-08-27T02:49:32.453Z,67.10
2022-08-27T02:50:36.170Z,67.00
2022-08-27T02:51:39.099Z,67.00
2022-08-27T02:52:46.329Z,67.20
2022-08-27T02:53:49.087Z,66.80
2022-08-27T02:54:52.676Z,67.30
2022-08-27T02:55:55.345Z,67.10
2022-08-27T02:56:58.691Z,67.20
2022-08-27T02:58:05.809Z,67.10
2022-08-27T02:59:09.195Z,67.50
2022-08-27T03:00:18.354Z,67.50
2022-08-27T03:01:21.549Z,67.80
2022-08-27T03:02:25.813Z,68.30
2022-08-27T03:03:30.531Z,68.20
2022-08-27T03:04:34.018Z,68.40
2022-08-27T03:05:37.414Z,68.60
2022-08-27T03:06:41.027Z,68.40
2022-08-27T03:07:43.919Z,68.60
2022-08-27T03:08:52.129Z,68.30
2022-08-27T03:09:55.881Z,69.40
2022-08-27T03:10:59.577Z,68.10
2022-08-27T03:12:04.420Z,68.30
2022-08-27T03:13:09.290Z,68.30
2022-08-27T03:14:12.887Z,68.60
2022-08-27T03:15:19.465Z,67.90
2022-08-27T03:16:22.050Z,68.10
2022-08-27T03:17:43.108Z,68.70
2022-08-27T03:18:46.729Z,68.90
2022-08-27T03:19:50.722Z,68.30
2022-08-27T03:20:56.969Z,68.10
2022-08-27T03:21:59.315Z,68.40
2022-08-27T03:23:02.692Z,68.50
2022-08-27T03:24:11.603Z,68.50
2022-08-27T03:25:17.944Z,68.40
2022-08-27T03:26:21.893Z,68.50
2022-08-27T03:27:24.421Z,68.70
2022-08-27T03:28:33.626Z,68.50
2022-08-27T03:29:36.453Z,68.60
2022-08-27T03:30:39.845Z,68.20
2022-08-27T03:31:42.443Z,68.70
2022-08-27T03:32:46.568Z,68.50
2022-08-27T03:33:48.884Z,68.50
2022-08-27T03:34:54.516Z,68.20
2022-08-27T03:35:57.492Z,68.60
2022-08-27T03:37:01.799Z,67.90
2022-08-27T03:38:04.385Z,68.50
2022-08-27T03:39:07.970Z,67.90
2022-08-27T03:40:11.535Z,68.30
2022-08-27T03:41:18.259Z,68.30
2022-08-27T03:42:21.434Z,68.20
2022-08-27T03:43:28.183Z,68.30
2022-08-27T03:44:32.061Z,68.00
2022-08-27T03:45:57.531Z,69.80
2022-08-27T03:46:57.616Z,68.10
2022-08-27T03:48:00.915Z,67.80
2022-08-27T03:49:03.618Z,67.90
2022-08-27T03:50:09.424Z,67.90
2022-08-27T03:51:15.525Z,67.80
2022-08-27T03:52:19.422Z,67.70
2022-08-27T03:53:21.811Z,67.70
2022-08-27T03:54:25.674Z,67.40
2022-08-27T03:55:28.201Z,69.10
2022-08-27T03:56:33.173Z,67.40
2022-08-27T03:57:36.045Z,67.50
2022-08-27T03:58:39.951Z,67.70
2022-08-27T03:59:43.943Z,67.60
2022-08-27T04:00:47.543Z,67.70
2022-08-27T04:01:52.028Z,67.30
2022-08-27T04:02:56.121Z,68.10
2022-08-27T04:03:58.515Z,67.40
2022-08-27T04:05:02.003Z,67.70
2022-08-27T04:06:04.620Z,67.70
2022-08-27T04:07:08.621Z,68.20
2022-08-27T04:08:11.761Z,67.80
2022-08-27T04:09:15.199Z,68.30
2022-08-27T04:10:20.110Z,68.10
2022-08-27T04:11:23.495Z,68.60
2022-08-27T04:12:27.048Z,68.30
2022-08-27T04:13:30.525Z,68.30
2022-08-27T04:14:32.836Z,69.00
2022-08-27T04:15:40.481Z,68.70
2022-08-27T04:16:43.706Z,68.60
2022-08-27T04:17:47.289Z,68.50
2022-08-27T04:18:49.962Z,69.20
2022-08-27T04:19:53.803Z,68.50
2022-08-27T04:20:56.981Z,68.70
2022-08-27T04:22:02.434Z,68.50
2022-08-27T04:23:05.970Z,68.40
2022-08-27T04:24:11.352Z,68.00
2022-08-27T04:25:13.795Z,68.60
2022-08-27T04:26:17.251Z,67.20
2022-08-27T04:27:20.776Z,67.10
2022-08-27T04:28:24.548Z,66.80
2022-08-27T04:29:28.547Z,66.70
2022-08-27T04:30:32.951Z,66.90
2022-08-27T04:31:36.651Z,65.60
2022-08-27T04:32:40.031Z,66.80
2022-08-27T04:33:42.536Z,67.50
2022-08-27T04:34:55.589Z,66.10
2022-08-27T04:35:59.183Z,66.10
2022-08-27T04:37:02.735Z,66.20
2022-08-27T04:38:05.612Z,65.70
2022-08-27T04:39:09.082Z,66.00
2022-08-27T04:40:11.922Z,65.60
2022-08-27T04:41:21.746Z,65.50
2022-08-27T04:42:25.175Z,65.60
2022-08-27T04:43:28.315Z,65.50
2022-08-27T04:44:34.202Z,65.10
2022-08-27T04:45:44.503Z,65.20
2022-08-27T04:46:51.177Z,65.10
2022-08-27T04:47:53.576Z,65.70
2022-08-27T04:49:02.507Z,65.90
2022-08-27T04:50:08.859Z,65.70
2022-08-27T04:51:12.663Z,65.60
2022-08-27T04:52:18.139Z,66.20
2022-08-27T04:53:21.626Z,66.10
2022-08-27T04:54:32.132Z,66.40
2022-08-27T04:55:35.943Z,65.80
2022-08-27T04:56:39.364Z,66.00
2022-08-27T04:57:43.154Z,66.20
2022-08-27T04:58:45.570Z,66.20
2022-08-27T04:59:49.113Z,65.80
2022-08-27T05:00:54.140Z,65.90
2022-08-27T05:01:59.340Z,65.60
2022-08-27T05:03:02.367Z,65.90
2022-08-27T05:04:06.607Z,65.80
2022-08-27T05:05:13.030Z,65.60
2022-08-27T05:06:19.735Z,65.60
2022-08-27T05:07:22.388Z,65.00
2022-08-27T05:08:25.686Z,64.50
2022-08-27T05:09:29.154Z,64.30
2022-08-27T05:10:31.450Z,64.10
2022-08-27T05:11:35.725Z,64.00
2022-08-27T05:12:38.256Z,63.90
2022-08-27T05:13:42.357Z,63.70
2022-08-27T05:14:45.691Z,63.50
2022-08-27T05:15:48.271Z,63.30
2022-08-27T05:16:51.827Z,63.70
2022-08-27T05:18:00.652Z,63.40
2022-08-27T05:19:05.871Z,63.20
2022-08-27T05:20:09.769Z,63.00
2022-08-27T05:21:19.654Z,63.30
2022-08-27T05:22:22.949Z,62.90
2022-08-27T05:23:28.253Z,62.50
2022-08-27T05:24:32.651Z,62.30
2022-08-27T05:25:38.999Z,62.20
2022-08-27T05:26:42.491Z,62.00
2022-08-27T05:27:44.864Z,62.40
2022-08-27T05:28:49.222Z,62.20
2022-08-27T05:29:51.919Z,62.00
2022-08-27T05:30:57.867Z,62.10
2022-08-27T05:32:01.142Z,61.40
2022-08-27T05:33:05.301Z,61.60
2022-08-27T05:34:10.263Z,61.40
2022-08-27T05:35:15.711Z,61.90
2022-08-27T05:36:22.341Z,61.80
2022-08-27T05:37:24.630Z,61.60
2022-08-27T05:38:30.581Z,61.70
2022-08-27T05:39:34.315Z,61.50
2022-08-27T05:40:37.352Z,61.10
2022-08-27T05:41:40.735Z,61.30
2022-08-27T05:42:43.320Z,61.70
2022-08-27T05:43:54.454Z,61.70
2022-08-27T05:44:56.712Z,61.40
2022-08-27T05:46:00.518Z,61.10
2022-08-27T05:47:03.661Z,60.90
2022-08-27T05:48:08.643Z,60.50
2022-08-27T05:49:11.197Z,60.20
2022-08-27T05:50:14.586Z,59.80
2022-08-27T05:51:25.456Z,59.80
2022-08-27T05:52:29.467Z,59.40
2022-08-27T05:53:31.822Z,59.70
2022-08-27T05:54:35.562Z,59.60
2022-08-27T05:55:39.726Z,59.60
2022-08-27T05:56:44.121Z,59.80
2022-08-27T05:57:46.453Z,59.60
2022-08-27T05:59:08.754Z,59.30
2022-08-27T06:00:29.868Z,58.80
2022-08-27T06:01:37.826Z,58.60
2022-08-27T06:02:40.587Z,59.20
2022-08-27T06:03:46.580Z,59.40
2022-08-27T06:04:50.008Z,58.90
2022-08-27T06:06:03.069Z,59.20
2022-08-27T06:07:06.663Z,58.60
2022-08-27T06:08:10.266Z,58.10
2022-08-27T06:09:16.700Z,58.60
2022-08-27T06:10:20.016Z,58.70
2022-08-27T06:11:23.114Z,58.30
2022-08-27T06:12:28.398Z,58.70
2022-08-27T06:13:32.399Z,59.20
2022-08-27T06:14:36.825Z,58.40
2022-08-27T06:15:39.301Z,57.90
2022-08-27T06:16:43.431Z,57.70
2022-08-27T06:17:45.959Z,57.60
2022-08-27T06:18:51.024Z,57.20
2022-08-27T06:19:53.398Z,57.00
2022-08-27T06:20:56.707Z,56.60
2022-08-27T06:22:10.711Z,56.70
2022-08-27T06:23:17.627Z,57.10
2022-08-27T06:24:30.587Z,56.90
2022-08-27T06:25:34.152Z,56.80
2022-08-27T06:26:39.404Z,56.90
2022-08-27T06:27:43.075Z,56.70
2022-08-27T06:28:46.562Z,56.50
2022-08-27T06:29:50.227Z,56.40
2022-08-27T06:30:52.679Z,56.10
2022-08-27T06:31:56.481Z,56.60
2022-08-27T06:32:59.217Z,56.10
2022-08-27T06:34:07.577Z,56.40
2022-08-27T06:35:10.284Z,55.80
2022-08-27T06:36:16.597Z,55.70
2022-08-27T06:37:19.017Z,55.40
2022-08-27T06:38:22.540Z,54.40
2022-08-27T06:39:24.864Z,55.30
2022-08-27T06:40:28.257Z,55.20
2022-08-27T06:41:31.599Z,55.90
2022-08-27T06:42:34.932Z,55.20
2022-08-27T06:43:42.734Z,56.20
2022-08-27T06:44:46.184Z,55.90
2022-08-27T06:45:49.160Z,55.00
2022-08-27T06:46:53.069Z,54.90
2022-08-27T06:47:56.131Z,54.90
2022-08-27T06:49:01.829Z,55.30
2022-08-27T06:50:07.514Z,54.70
2022-08-27T06:51:12.744Z,55.10
2022-08-27T06:52:16.596Z,54.80
2022-08-27T06:53:18.986Z,54.20
2022-08-27T06:54:27.883Z,53.90
2022-08-27T06:55:34.144Z,54.70
2022-08-27T06:56:41.778Z,55.10
2022-08-27T06:57:44.171Z,54.50
2022-08-27T06:58:48.644Z,54.30
2022-08-27T06:59:51.041Z,54.10
2022-08-27T07:00:54.436Z,54.20
2022-08-27T07:01:57.924Z,54.20
2022-08-27T07:03:01.739Z,54.40
2022-08-27T07:04:15.687Z,54.90
2022-08-27T07:05:22.633Z,54.30
2022-08-27T07:06:26.720Z,54.70
2022-08-27T07:07:34.547Z,53.50
2022-08-27T07:08:40.161Z,52.80
2022-08-27T07:09:43.532Z,52.00
2022-08-27T07:10:45.834Z,51.80
2022-08-27T07:11:49.394Z,52.10
2022-08-27T07:12:51.849Z,52.40
2022-08-27T07:13:55.419Z,52.60
2022-08-27T07:14:58.731Z,53.10
2022-08-27T07:16:05.643Z,53.20
2022-08-27T07:17:11.361Z,53.30
2022-08-27T07:18:18.848Z,53.70
2022-08-27T07:19:32.355Z,53.50
2022-08-27T07:20:41.336Z,53.30
2022-08-27T07:21:43.710Z,53.80
2022-08-27T07:22:48.239Z,53.50
2022-08-27T07:23:59.361Z,53.10
2022-08-27T07:25:02.414Z,53.10
2022-08-27T07:26:09.494Z,53.20
2022-08-27T07:27:11.867Z,53.40
2022-08-27T07:28:15.447Z,52.50
2022-08-27T07:29:17.817Z,51.90
2022-08-27T07:30:24.798Z,51.10
2022-08-27T07:31:27.561Z,50.80
2022-08-27T07:32:31.879Z,51.10
2022-08-27T07:33:34.561Z,50.90
2022-08-27T07:34:37.846Z,51.70
2022-08-27T07:35:41.853Z,52.10
2022-08-27T07:36:45.231Z,52.10
2022-08-27T07:37:47.689Z,52.00
2022-08-27T07:38:57.012Z,51.10
2022-08-27T07:40:05.032Z,51.70
2022-08-27T07:41:09.156Z,51.00
2022-08-27T07:42:30.159Z,50.70
2022-08-27T07:43:51.063Z,51.10
2022-08-27T07:45:00.633Z,51.70
2022-08-27T07:46:04.517Z,52.50
2022-08-27T07:47:08.697Z,51.90
2022-08-27T07:48:12.721Z,51.80
2022-08-27T07:49:16.538Z,52.20
2022-08-27T07:50:20.982Z,52.80
2022-08-27T07:51:29.767Z,52.40
2022-08-27T07:52:32.127Z,52.50
2022-08-27T07:53:35.667Z,52.40
2022-08-27T07:54:38.282Z,52.10
2022-08-27T07:55:42.637Z,51.80
2022-08-27T07:56:54.691Z,51.80
2022-08-27T07:58:02.583Z,51.80
2022-08-27T07:59:05.279Z,52.00
2022-08-27T08:00:11.212Z,52.60
2022-08-27T08:01:17.803Z,52.70
2022-08-27T08:02:20.348Z,53.10
2022-08-27T08:03:24.091Z,52.50
2022-08-27T08:04:27.335Z,50.70
2022-08-27T08:05:31.253Z,50.50
2022-08-27T08:06:37.585Z,51.10
2022-08-27T08:07:41.486Z,50.70
2022-08-27T08:08:45.492Z,50.60
2022-08-27T08:09:48.889Z,50.80
2022-08-27T08:10:51.392Z,50.20
2022-08-27T08:11:55.468Z,49.90
2022-08-27T08:12:57.924Z,48.90
2022-08-27T08:14:01.363Z,48.90
2022-08-27T08:15:06.460Z,49.40
2022-08-27T08:16:10.434Z,49.80
2022-08-27T08:17:13.718Z,49.20
2022-08-27T08:18:17.228Z,49.00
2022-08-27T08:19:19.555Z,49.10
2022-08-27T08:20:35.864Z,49.10
2022-08-27T08:21:46.888Z,49.30
2022-08-27T08:22:50.609Z,48.90
2022-08-27T08:23:53.287Z,48.90
2022-08-27T08:24:57.539Z,47.70
2022-08-27T08:26:00.772Z,46.70
2022-08-27T08:27:07.404Z,47.40
2022-08-27T08:28:12.426Z,47.50
2022-08-27T08:29:18.517Z,47.70
2022-08-27T08:30:22.164Z,47.80
2022-08-27T08:31:24.858Z,48.20
2022-08-27T08:32:28.556Z,48.10
2022-08-27T08:33:31.638Z,47.00
2022-08-27T08:34:35.921Z,46.70
2022-08-27T08:35:40.595Z,47.20
2022-08-27T08:36:49.053Z,47.60
2022-08-27T08:37:58.737Z,47.40
2022-08-27T08:39:01.301Z,47.40
2022-08-27T08:40:07.277Z,47.50
2022-08-27T08:41:39.904Z,47.70
2022-08-27T08:42:52.899Z,47.60
2022-08-27T08:43:56.530Z,47.10
2022-08-27T08:45:04.560Z,47.00
2022-08-27T08:46:17.637Z,47.00
2022-08-27T08:47:27.699Z,47.00
2022-08-27T08:48:33.039Z,47.00
2022-08-27T08:49:56.546Z,47.10
2022-08-27T08:51:05.623Z,47.50
2022-08-27T08:52:31.353Z,47.60
2022-08-27T08:53:47.325Z,47.10
2022-08-27T08:54:51.678Z,47.00
2022-08-27T08:56:02.610Z,47.00
2022-08-27T08:57:18.643Z,47.00
2022-08-27T08:58:34.929Z,47.50
2022-08-27T08:59:43.420Z,47.20
2022-08-27T09:00:54.019Z,47.30
2022-08-27T09:01:57.157Z,47.10
2022-08-27T09:03:00.853Z,46.90
2022-08-27T09:04:09.332Z,47.00
2022-08-27T09:05:12.909Z,46.70
2022-08-27T09:06:23.911Z,47.10
2022-08-27T09:07:35.904Z,47.00
2022-08-27T09:08:43.521Z,46.90
2022-08-27T09:09:52.791Z,46.90
2022-08-27T09:11:05.279Z,46.80
2022-08-27T09:12:16.543Z,47.10
2022-08-27T09:13:28.929Z,47.10
2022-08-27T09:14:39.798Z,47.40
2022-08-27T09:15:42.825Z,47.40
2022-08-27T09:16:46.380Z,47.90
2022-08-27T09:17:50.461Z,47.50
2022-08-27T09:18:54.465Z,47.50
2022-08-27T09:19:57.418Z,47.30
2022-08-27T09:21:11.959Z,46.20
2022-08-27T09:22:28.592Z,46.20
2022-08-27T09:23:40.787Z,46.20
2022-08-27T09:24:56.651Z,46.00
2022-08-27T09:25:59.312Z,46.10
2022-08-27T09:27:02.920Z,46.50
2022-08-27T09:28:29.620Z,46.90
2022-08-27T09:29:33.224Z,47.60
2022-08-27T09:30:43.846Z,46.80
2022-08-27T09:31:56.477Z,46.90
2022-08-27T09:33:02.755Z,47.00
2022-08-27T09:34:06.651Z,46.70
2022-08-27T09:35:13.617Z,46.30
2022-08-27T09:36:22.983Z,46.50
2022-08-27T09:37:34.179Z,46.80
2022-08-27T09:38:40.841Z,46.90
2022-08-27T09:39:51.455Z,47.00
2022-08-27T09:40:57.033Z,47.40
2022-08-27T09:42:00.768Z,47.10
2022-08-27T09:43:09.351Z,47.20
2022-08-27T09:44:14.366Z,47.30
2022-08-27T09:45:21.336Z,47.30
2022-08-27T09:46:27.033Z,47.30
2022-08-27T09:47:30.877Z,47.40
2022-08-27T09:48:37.812Z,47.80
2022-08-27T09:49:41.592Z,47.60
2022-08-27T09:50:49.577Z,47.10
2022-08-27T09:51:55.060Z,47.40
2022-08-27T09:52:59.582Z,46.90
2022-08-27T09:54:04.453Z,46.70
2022-08-27T09:55:08.875Z,46.60
2022-08-27T09:56:25.553Z,46.60
2022-08-27T09:57:36.003Z,46.50
2022-08-27T09:58:53.921Z,46.70
2022-08-27T09:59:56.454Z,46.50
2022-08-27T10:01:04.487Z,46.20
2022-08-27T10:02:15.533Z,47.20
2022-08-27T10:03:24.919Z,46.80
2022-08-27T10:04:37.950Z,47.10
2022-08-27T10:05:54.630Z,48.30
2022-08-27T10:06:57.023Z,47.80
2022-08-27T10:08:08.244Z,47.00
2022-08-27T10:09:17.380Z,47.30
2022-08-27T10:10:27.487Z,47.10
2022-08-27T10:11:36.057Z,47.00
2022-08-27T10:12:52.867Z,47.20
2022-08-27T10:14:03.889Z,48.30
2022-08-27T10:15:09.467Z,46.40
2022-08-27T10:16:48.519Z,46.70
2022-08-27T10:18:08.274Z,46.40
2022-08-27T10:19:28.067Z,46.50
2022-08-27T10:20:43.029Z,46.80
2022-08-27T10:21:52.379Z,46.50
2022-08-27T10:23:10.469Z,46.70
2022-08-27T10:24:28.102Z,47.10
2022-08-27T10:25:47.743Z,47.00
2022-08-27T10:27:06.318Z,47.10
2022-08-27T10:28:25.410Z,46.90
2022-08-27T10:29:39.947Z,47.10
2022-08-27T10:31:01.531Z,47.00
2022-08-27T10:32:18.023Z,46.30
2022-08-27T10:33:34.249Z,46.90
2022-08-27T10:34:53.877Z,46.40
2022-08-27T10:36:10.568Z,46.50
2022-08-27T10:37:26.223Z,45.70
2022-08-27T10:38:46.657Z,45.30
2022-08-27T10:40:03.265Z,45.60
2022-08-27T10:41:18.909Z,46.00
2022-08-27T10:42:27.903Z,46.00
2022-08-27T10:44:02.663Z,46.50
2022-08-27T10:45:31.015Z,46.40
2022-08-27T10:46:54.457Z,46.20
2022-08-27T10:48:10.830Z,47.10
2022-08-27T10:49:26.311Z,45.60
2022-08-27T10:50:36.727Z,45.30
2022-08-27T10:51:48.021Z,45.40
2022-08-27T10:52:59.303Z,43.60
2022-08-27T10:54:11.428Z,44.30
2022-08-27T10:55:22.015Z,43.50
2022-08-27T10:56:34.173Z,44.10
2022-08-27T10:58:10.969Z,44.30
2022-08-27T10:59:30.643Z,44.00
2022-08-27T11:00:43.060Z,43.90
2022-08-27T11:01:58.196Z,44.20
2022-08-27T11:03:07.725Z,43.00
2022-08-27T11:04:18.789Z,43.30
2022-08-27T11:05:28.472Z,43.80
2022-08-27T11:06:35.897Z,43.60
2022-08-27T11:07:45.103Z,43.80
2022-08-27T11:08:55.057Z,43.80
2022-08-27T11:10:02.371Z,43.90
2022-08-27T11:11:49.822Z,44.20
2022-08-27T11:12:42.662Z,43.70
2022-08-27T11:13:51.732Z,42.40
2022-08-27T11:15:01.581Z,42.10
2022-08-27T11:16:13.726Z,42.10
2022-08-27T11:17:26.721Z,42.70
2022-08-27T11:18:45.664Z,42.90
2022-08-27T11:19:56.225Z,43.00
2022-08-27T11:21:06.664Z,43.00
2022-08-27T11:22:25.963Z,42.70
2022-08-27T11:23:38.840Z,43.30
2022-08-27T11:24:49.293Z,42.10
2022-08-27T11:25:59.583Z,42.40
2022-08-27T11:27:07.674Z,42.20
2022-08-27T11:28:14.298Z,42.00
2022-08-27T11:29:25.376Z,42.10
2022-08-27T11:30:39.084Z,41.70
2022-08-27T11:31:51.135Z,41.10
2022-08-27T11:33:05.887Z,41.50
2022-08-27T11:34:23.353Z,41.70
2022-08-27T11:35:40.379Z,41.30
2022-08-27T11:37:13.800Z,40.90
2022-08-27T11:38:37.595Z,40.20
2022-08-27T11:40:07.927Z,38.80
2022-08-27T11:41:44.732Z,39.10
2022-08-27T11:42:55.139Z,39.60
2022-08-27T11:44:02.072Z,39.60
2022-08-27T11:45:08.256Z,39.40
2022-08-27T11:46:12.278Z,39.50
2022-08-27T11:47:22.639Z,38.60
2022-08-27T11:48:28.550Z,39.10
2022-08-27T11:49:44.578Z,39.10
2022-08-27T11:50:57.975Z,39.40
2022-08-27T11:52:07.313Z,39.00
2022-08-27T11:53:10.750Z,38.70
2022-08-27T11:54:28.592Z,38.60
2022-08-27T11:55:36.837Z,38.70
2022-08-27T11:56:43.196Z,39.50
2022-08-27T11:57:46.740Z,37.60
2022-08-27T11:58:53.038Z,37.40
2022-08-27T11:59:58.985Z,37.90
2022-08-27T12:01:04.791Z,38.00
2022-08-27T12:02:20.946Z,38.40
2022-08-27T12:03:31.645Z,37.60
2022-08-27T12:04:38.842Z,37.80
2022-08-27T12:05:46.337Z,38.00
2022-08-27T12:06:53.938Z,37.90
2022-08-27T12:07:58.001Z,37.70
2022-08-27T12:09:15.497Z,38.10
2022-08-27T12:10:33.464Z,38.20
2022-08-27T12:11:53.393Z,37.60
2022-08-27T12:13:12.441Z,37.50
2022-08-27T12:14:33.138Z,37.80
2022-08-27T12:15:54.639Z,38.30
2022-08-27T12:17:08.888Z,38.60
2022-08-27T12:18:37.273Z,38.20
2022-08-27T12:19:57.088Z,38.50
2022-08-27T12:21:13.245Z,38.60
2022-08-27T12:22:56.455Z,37.60
2022-08-27T12:24:31.202Z,38.00
2022-08-27T12:25:35.445Z,38.10
2022-08-27T12:26:41.822Z,37.90
2022-08-27T12:27:56.910Z,37.90
2022-08-27T12:29:24.167Z,36.80
2022-08-27T12:30:33.007Z,37.10
2022-08-27T12:31:43.780Z,35.70
2022-08-27T12:32:51.294Z,35.30
2022-08-27T12:33:55.289Z,35.00
2022-08-27T12:35:15.848Z,35.40
2022-08-27T12:36:27.934Z,35.70
2022-08-27T12:37:37.569Z,36.20
2022-08-27T12:38:50.583Z,37.20
2022-08-27T12:39:58.312Z,37.20
2022-08-27T12:41:05.388Z,37.10
2022-08-27T12:42:13.267Z,37.20
2022-08-27T12:43:21.206Z,34.20
2022-08-27T12:44:25.841Z,34.20
2022-08-27T12:45:30.946Z,33.50
2022-08-27T12:46:37.385Z,33.70
2022-08-27T12:47:51.045Z,33.10
2022-08-27T12:49:35.829Z,33.00
2022-08-27T12:50:31.646Z,33.40
2022-08-27T12:51:37.177Z,34.40
2022-08-27T12:53:13.683Z,34.40
2022-08-27T12:54:36.386Z,34.60
2022-08-27T12:56:02.395Z,34.60
2022-08-27T12:57:15.837Z,34.20
2022-08-27T12:58:31.759Z,34.00
2022-08-27T13:00:08.951Z,34.20
2022-08-27T13:01:43.638Z,33.60
2022-08-27T13:03:17.830Z,34.30
2022-08-27T13:04:24.878Z,35.60
2022-08-27T13:05:36.115Z,36.20
2022-08-27T13:06:46.758Z,35.10
2022-08-27T13:07:52.889Z,34.30
2022-08-27T13:08:56.838Z,35.00
2022-08-27T13:10:10.679Z,35.70
2022-08-27T13:11:22.218Z,36.00
2022-08-27T13:12:25.733Z,36.50
2022-08-27T13:13:29.263Z,36.80
2022-08-27T13:14:37.930Z,36.80
2022-08-27T13:15:46.121Z,36.40
2022-08-27T13:16:52.689Z,35.10
2022-08-27T13:17:57.574Z,35.20
2022-08-27T13:19:08.380Z,34.70
2022-08-27T13:20:16.793Z,34.60
2022-08-27T13:21:25.276Z,34.90
2022-08-27T13:22:32.149Z,33.80
2022-08-27T13:23:36.651Z,34.00
2022-08-27T13:24:48.107Z,33.60
2022-08-27T13:25:59.494Z,34.00
2022-08-27T13:27:06.067Z,34.00
2022-08-27T13:28:13.363Z,34.20
2022-08-27T13:29:18.186Z,34.40
2022-08-27T13:30:35.275Z,34.90
2022-08-27T13:31:40.285Z,34.80
2022-08-27T13:32:46.432Z,35.30
2022-08-27T13:33:53.916Z,35.50
2022-08-27T13:34:59.190Z,35.90
2022-08-27T13:36:04.309Z,36.20
2022-08-27T13:37:22.767Z,36.30
2022-08-27T13:38:30.419Z,36.60
2022-08-27T13:39:35.825Z,36.90
2022-08-27T13:40:53.493Z,37.30
2022-08-27T13:42:00.738Z,37.50
2022-08-27T13:43:08.802Z,37.60
2022-08-27T13:44:19.547Z,36.90
2022-08-27T13:45:22.663Z,36.70
2022-08-27T13:46:30.199Z,37.20
2022-08-27T13:47:43.211Z,36.90
2022-08-27T13:48:51.197Z,37.40
2022-08-27T13:50:07.783Z,37.20
2022-08-27T13:51:14.369Z,37.40
2022-08-27T13:52:27.654Z,37.20
2022-08-27T13:53:50.918Z,37.10
2022-08-27T13:55:06.332Z,37.20
2022-08-27T13:56:09.977Z,37.20
2022-08-27T13:57:25.884Z,36.90
2022-08-27T13:58:33.635Z,37.10
2022-08-27T13:59:42.180Z,37.30
2022-08-27T14:00:47.213Z,37.40
2022-08-27T14:01:57.694Z,38.00
2022-08-27T14:03:02.890Z,37.90
2022-08-27T14:04:08.952Z,37.70
2022-08-27T14:05:16.885Z,37.30
2022-08-27T14:06:31.592Z,37.80
2022-08-27T14:07:47.646Z,37.60
2022-08-27T14:08:51.888Z,37.40
2022-08-27T14:10:06.914Z,37.40
2022-08-27T14:11:11.950Z,36.70
2022-08-27T14:12:32.541Z,36.80
2022-08-27T14:13:43.704Z,37.00
2022-08-27T14:14:54.658Z,36.90
2022-08-27T14:16:00.622Z,36.80
2022-08-27T14:17:04.813Z,36.50
2022-08-27T14:18:28.984Z,36.70
2022-08-27T14:19:41.437Z,36.60
2022-08-27T14:20:45.704Z,37.00
2022-08-27T14:21:50.911Z,36.90
2022-08-27T14:22:55.030Z,36.90
2022-08-27T14:23:57.550Z,36.60
2022-08-27T14:25:02.931Z,36.70
2022-08-27T14:26:05.989Z,36.50
2022-08-27T14:27:15.992Z,36.60
2022-08-27T14:28:19.797Z,36.90
2022-08-27T14:29:23.785Z,36.70
2022-08-27T14:30:29.088Z,36.60
2022-08-27T14:31:32.614Z,36.70